createdAt,value
2018-11-13T00:00:20.970Z,67.39
2018-11-13T00:02:50.522Z,66.36
2018-11-13T00:05:19.402Z,65.72
2018-11-13T00:07:48.201Z,65.37
2018-11-13T00:10:17.042Z,66.27
2018-11-13T00:12:45.846Z,66.27
2018-11-13T00:15:14.601Z,66.89
2018-11-13T00:17:43.395Z,67.22
2018-11-13T00:20:14.789Z,67.31
2018-11-13T00:22:43.987Z,67.72
2018-11-13T00:25:15.243Z,68.91
2018-11-13T00:27:44.530Z,67.80
2018-11-13T00:30:19.546Z,67.59
2018-11-13T00:32:48.405Z,67.92
2018-11-13T00:35:18.310Z,67.84
2018-11-13T00:37:47.862Z,68.87
2018-11-13T00:40:17.509Z,68.18
2018-11-13T00:42:46.810Z,68.30
2018-11-13T00:45:15.606Z,68.10
2018-11-13T00:47:44.578Z,67.62
2018-11-13T00:50:15.627Z,67.37
2018-11-13T00:52:45.058Z,67.37
2018-11-13T00:55:14.204Z,67.46
2018-11-13T00:57:43.025Z,67.31
2018-11-13T01:00:14.788Z,68.17
2018-11-13T01:02:44.570Z,67.82
2018-11-13T01:05:15.311Z,67.50
2018-11-13T01:07:45.383Z,67.96
2018-11-13T01:10:15.465Z,68.71
2018-11-13T01:12:45.162Z,68.57
2018-11-13T01:15:15.252Z,68.41
2018-11-13T01:17:44.799Z,68.73
2018-11-13T01:20:14.491Z,68.52
2018-11-13T01:22:43.400Z,68.72
2018-11-13T01:25:13.232Z,69.01
2018-11-13T01:27:42.534Z,69.04
2018-11-13T01:30:12.766Z,68.97
2018-11-13T01:32:42.311Z,69.20
2018-11-13T01:35:14.118Z,69.17
2018-11-13T01:37:42.936Z,69.04
2018-11-13T01:40:12.918Z,69.03
2018-11-13T01:42:42.194Z,68.84
2018-11-13T01:45:12.513Z,68.66
2018-11-13T01:47:42.162Z,68.77
2018-11-13T01:50:11.760Z,69.06
2018-11-13T01:52:40.585Z,68.98
2018-11-13T01:55:11.452Z,68.92
2018-11-13T01:57:40.266Z,69.16
2018-11-13T02:00:16.096Z,69.22
2018-11-13T02:02:45.914Z,69.53
2018-11-13T02:05:14.862Z,69.41
2018-11-13T02:07:43.620Z,69.29
2018-11-13T02:10:12.477Z,69.69
2018-11-13T02:12:41.266Z,69.07
2018-11-13T02:15:10.560Z,69.31
2018-11-13T02:17:39.541Z,69.05
2018-11-13T02:20:13.816Z,68.88
2018-11-13T02:22:42.990Z,69.06
2018-11-13T02:25:14.059Z,69.45
2018-11-13T02:27:43.249Z,69.80
2018-11-13T02:30:15.235Z,70.29
2018-11-13T02:32:44.741Z,70.57
2018-11-13T02:35:14.206Z,70.69
2018-11-13T02:37:43.523Z,70.39
2018-11-13T02:40:12.392Z,70.22
2018-11-13T02:42:41.239Z,70.54
2018-11-13T02:45:11.916Z,70.31
2018-11-13T02:47:41.220Z,70.11
2018-11-13T02:50:11.771Z,70.21
2018-11-13T02:52:41.257Z,70.49
2018-11-13T02:55:10.873Z,69.84
2018-11-13T02:57:39.744Z,70.14
2018-11-13T03:00:11.467Z,69.99
2018-11-13T03:02:40.214Z,69.36
2018-11-13T03:05:11.194Z,69.99
2018-11-13T03:07:40.537Z,69.58
2018-11-13T03:10:11.431Z,70.04
2018-11-13T03:12:40.268Z,69.44
2018-11-13T03:15:11.354Z,69.80
2018-11-13T03:17:40.122Z,70.58
2018-11-13T03:20:11.331Z,70.42
2018-11-13T03:22:40.355Z,69.28
2018-11-13T03:25:11.543Z,68.99
2018-11-13T03:27:40.607Z,68.46
2018-11-13T03:30:16.140Z,69.11
2018-11-13T03:32:44.916Z,68.97
2018-11-13T03:35:13.707Z,69.56
2018-11-13T03:37:42.831Z,69.90
2018-11-13T03:40:12.393Z,67.93
2018-11-13T03:42:41.406Z,68.53
2018-11-13T03:45:11.325Z,68.81
2018-11-13T03:47:40.249Z,68.95
2018-11-13T03:50:13.002Z,69.11
2018-11-13T03:52:42.278Z,69.54
2018-11-13T03:55:12.002Z,69.47
2018-11-13T03:57:41.835Z,70.29
2018-11-13T04:00:13.107Z,70.21
2018-11-13T04:02:42.293Z,69.92
2018-11-13T04:05:12.657Z,70.04
2018-11-13T04:07:49.934Z,70.40
2018-11-13T04:10:19.585Z,70.41
2018-11-13T04:12:48.457Z,69.69
2018-11-13T04:15:18.818Z,70.36
2018-11-13T04:17:47.565Z,70.24
2018-11-13T04:20:17.509Z,70.13
2018-11-13T04:22:46.599Z,69.76
2018-11-13T04:25:15.768Z,69.00
2018-11-13T04:27:44.525Z,69.23
2018-11-13T04:30:15.658Z,68.90
2018-11-13T04:32:44.579Z,68.81
2018-11-13T04:35:14.568Z,68.97
2018-11-13T04:37:43.403Z,69.16
2018-11-13T04:40:15.738Z,69.76
2018-11-13T04:42:46.257Z,70.44
2018-11-13T04:45:16.184Z,70.15
2018-11-13T04:47:46.153Z,70.10
2018-11-13T04:50:16.112Z,70.31
2018-11-13T04:52:45.115Z,70.51
2018-11-13T04:55:14.270Z,70.54
2018-11-13T04:57:44.074Z,70.89
2018-11-13T05:00:16.050Z,70.63
2018-11-13T05:02:45.601Z,70.99
2018-11-13T05:05:15.613Z,71.25
2018-11-13T05:07:47.498Z,71.76
2018-11-13T05:10:16.399Z,71.76
2018-11-13T05:12:46.125Z,71.69
2018-11-13T05:15:14.916Z,70.99
2018-11-13T05:17:44.321Z,71.31
2018-11-13T05:20:14.569Z,71.42
2018-11-13T05:22:43.385Z,71.58
2018-11-13T05:25:14.223Z,71.65
2018-11-13T05:27:43.448Z,71.72
2018-11-13T05:30:16.083Z,71.45
2018-11-13T05:32:44.977Z,71.38
2018-11-13T05:35:15.095Z,70.65
2018-11-13T05:37:44.692Z,70.71
2018-11-13T05:40:15.645Z,70.48
2018-11-13T05:42:44.833Z,70.46
2018-11-13T05:45:14.954Z,71.06
2018-11-13T05:47:43.859Z,71.82
2018-11-13T05:50:13.895Z,72.57
2018-11-13T05:52:43.558Z,72.71
2018-11-13T05:55:12.754Z,72.54
2018-11-13T05:57:41.712Z,70.64
2018-11-13T06:00:14.675Z,70.74
2018-11-13T06:02:43.813Z,70.64
2018-11-13T06:05:13.506Z,71.77
2018-11-13T06:07:42.391Z,70.85
2018-11-13T06:10:12.386Z,70.94
2018-11-13T06:12:41.244Z,70.63
2018-11-13T06:15:10.469Z,70.55
2018-11-13T06:17:39.301Z,71.31
2018-11-13T06:20:09.807Z,73.46
2018-11-13T06:22:38.954Z,71.97
2018-11-13T06:25:09.692Z,72.21
2018-11-13T06:27:38.589Z,72.17
2018-11-13T06:30:13.932Z,71.61
2018-11-13T06:32:42.776Z,71.07
2018-11-13T06:35:11.594Z,70.95
2018-11-13T06:37:40.737Z,70.95
2018-11-13T06:40:10.311Z,71.16
2018-11-13T06:42:39.602Z,70.61
2018-11-13T06:45:12.747Z,70.69
2018-11-13T06:47:42.238Z,70.64
2018-11-13T06:50:11.612Z,70.34
2018-11-13T06:52:40.890Z,70.15
2018-11-13T06:55:13.088Z,69.91
2018-11-13T06:57:41.866Z,70.28
2018-11-13T07:00:11.223Z,70.12
2018-11-13T07:02:40.202Z,69.95
2018-11-13T07:05:12.481Z,69.92
2018-11-13T07:07:42.076Z,69.92
2018-11-13T07:10:13.308Z,69.53
2018-11-13T07:12:43.544Z,69.53
2018-11-13T07:15:16.316Z,69.34
2018-11-13T07:17:46.382Z,69.12
2018-11-13T07:20:19.058Z,69.05
2018-11-13T07:22:47.953Z,68.90
2018-11-13T07:25:16.808Z,68.53
2018-11-13T07:27:46.062Z,67.79
2018-11-13T07:30:16.305Z,67.48
2018-11-13T07:32:45.071Z,67.55
2018-11-13T07:35:15.571Z,67.03
2018-11-13T07:37:47.078Z,67.30
2018-11-13T07:40:15.894Z,66.74
2018-11-13T07:42:44.723Z,66.80
2018-11-13T07:45:14.553Z,65.97
2018-11-13T07:47:44.620Z,65.97
2018-11-13T07:50:14.126Z,65.98
2018-11-13T07:52:42.978Z,65.92
2018-11-13T07:55:13.095Z,65.83
2018-11-13T07:57:41.878Z,65.65
2018-11-13T08:00:13.564Z,65.36
2018-11-13T08:02:43.198Z,65.62
2018-11-13T08:05:12.165Z,65.47
2018-11-13T08:07:41.078Z,65.81
2018-11-13T08:10:11.615Z,65.80
2018-11-13T08:12:40.991Z,65.34
2018-11-13T08:15:12.305Z,64.93
2018-11-13T08:17:41.527Z,65.29
2018-11-13T08:20:12.675Z,65.83
2018-11-13T08:22:41.903Z,66.01
2018-11-13T08:25:11.234Z,65.90
2018-11-13T08:27:41.026Z,65.51
2018-11-13T08:30:12.608Z,65.73
2018-11-13T08:32:42.245Z,65.62
2018-11-13T08:35:11.212Z,64.94
2018-11-13T08:37:40.637Z,65.83
2018-11-13T08:40:12.403Z,65.79
2018-11-13T08:42:41.614Z,65.49
2018-11-13T08:45:13.594Z,65.52
2018-11-13T08:47:42.667Z,65.49
2018-11-13T08:50:12.125Z,65.71
2018-11-13T08:52:41.912Z,65.46
2018-11-13T08:55:11.433Z,65.22
2018-11-13T08:57:40.363Z,65.97
2018-11-13T09:00:11.396Z,65.11
2018-11-13T09:02:41.123Z,65.49
2018-11-13T09:05:10.676Z,65.74
2018-11-13T09:07:40.103Z,66.07
2018-11-13T09:10:11.558Z,66.19
2018-11-13T09:12:40.997Z,66.31
2018-11-13T09:15:11.764Z,67.04
2018-11-13T09:17:40.869Z,67.44
2018-11-13T09:20:11.484Z,68.05
2018-11-13T09:22:40.481Z,67.37
2018-11-13T09:25:12.211Z,68.37
2018-11-13T09:27:41.076Z,67.27
2018-11-13T09:30:12.515Z,67.50
2018-11-13T09:32:42.287Z,67.41
2018-11-13T09:35:12.403Z,66.90
2018-11-13T09:37:41.919Z,66.72
2018-11-13T09:40:13.288Z,66.84
2018-11-13T09:42:42.945Z,66.84
2018-11-13T09:45:12.570Z,65.93
2018-11-13T09:47:41.504Z,66.47
2018-11-13T09:50:12.485Z,66.63
2018-11-13T09:52:41.982Z,66.90
2018-11-13T09:55:12.106Z,66.49
2018-11-13T09:57:40.947Z,66.89
2018-11-13T10:00:20.149Z,66.60
2018-11-13T10:02:51.843Z,65.93
2018-11-13T10:05:21.180Z,65.85
2018-11-13T10:07:50.786Z,66.16
2018-11-13T10:10:19.675Z,65.86
2018-11-13T10:12:48.808Z,66.07
2018-11-13T10:15:20.256Z,66.09
2018-11-13T10:17:49.175Z,64.53
2018-11-13T10:20:18.455Z,64.44
2018-11-13T10:22:48.678Z,63.74
2018-11-13T10:25:17.681Z,63.36
2018-11-13T10:27:46.479Z,63.01
2018-11-13T10:30:16.911Z,63.26
2018-11-13T10:32:46.244Z,63.25
2018-11-13T10:35:16.327Z,63.11
2018-11-13T10:37:45.153Z,62.37
2018-11-13T10:40:16.488Z,62.67
2018-11-13T10:42:45.514Z,62.83
2018-11-13T10:45:15.919Z,62.35
2018-11-13T10:47:51.261Z,62.54
2018-11-13T10:50:21.713Z,62.11
2018-11-13T10:52:50.679Z,61.34
2018-11-13T10:55:19.559Z,61.67
2018-11-13T10:57:48.364Z,61.71
2018-11-13T11:00:22.802Z,62.12
2018-11-13T11:02:56.960Z,61.52
2018-11-13T11:05:27.163Z,61.70
2018-11-13T11:07:56.425Z,61.31
2018-11-13T11:10:25.674Z,61.70
2018-11-13T11:12:54.608Z,60.89
2018-11-13T11:15:23.518Z,61.45
2018-11-13T11:17:52.551Z,60.57
2018-11-13T11:20:21.435Z,60.58
2018-11-13T11:22:50.503Z,60.40
2018-11-13T11:25:19.467Z,60.61
2018-11-13T11:27:48.350Z,59.63
2018-11-13T11:30:18.816Z,59.30
2018-11-13T11:32:47.707Z,59.33
2018-11-13T11:35:16.484Z,59.88
2018-11-13T11:37:45.262Z,59.75
2018-11-13T11:40:14.108Z,59.70
2018-11-13T11:42:42.894Z,59.33
2018-11-13T11:45:13.979Z,58.79
2018-11-13T11:47:43.139Z,59.38
2018-11-13T11:50:13.093Z,59.36
2018-11-13T11:52:41.961Z,59.27
2018-11-13T11:55:11.767Z,58.83
2018-11-13T11:57:40.608Z,59.16
2018-11-13T12:00:16.754Z,59.46
2018-11-13T12:02:45.538Z,59.20
2018-11-13T12:05:14.292Z,58.48
2018-11-13T12:07:43.059Z,58.92
2018-11-13T12:10:13.207Z,58.23
2018-11-13T12:12:42.057Z,58.52
2018-11-13T12:15:12.240Z,57.98
2018-11-13T12:17:41.263Z,58.20
2018-11-13T12:20:12.041Z,58.41
2018-11-13T12:22:40.801Z,57.95
2018-11-13T12:25:17.443Z,57.76
2018-11-13T12:27:46.228Z,58.07
2018-11-13T12:30:20.422Z,57.21
2018-11-13T12:32:50.008Z,57.09
2018-11-13T12:35:19.734Z,56.62
2018-11-13T12:37:48.573Z,57.50
2018-11-13T12:40:18.718Z,57.71
2018-11-13T12:42:48.479Z,57.51
2018-11-13T12:45:17.753Z,57.31
2018-11-13T12:47:46.718Z,57.44
2018-11-13T12:50:17.031Z,57.50
2018-11-13T12:52:45.918Z,57.80
2018-11-13T12:55:18.145Z,57.15
2018-11-13T12:57:47.251Z,56.86
2018-11-13T13:00:19.623Z,56.80
2018-11-13T13:02:48.532Z,57.26
2018-11-13T13:05:17.477Z,57.34
2018-11-13T13:07:46.383Z,56.83
2018-11-13T13:10:16.262Z,57.60
2018-11-13T13:12:45.092Z,56.61
2018-11-13T13:15:15.506Z,57.44
2018-11-13T13:17:44.637Z,56.75
2018-11-13T13:20:17.142Z,56.08
2018-11-13T13:22:46.987Z,56.18
2018-11-13T13:25:17.092Z,56.17
2018-11-13T13:27:46.154Z,56.58
2018-11-13T13:30:18.303Z,55.67
2018-11-13T13:32:47.784Z,56.09
2018-11-13T13:35:59.260Z,56.67
2018-11-13T13:38:28.195Z,56.24
2018-11-13T13:40:58.498Z,55.49
2018-11-13T13:43:28.103Z,55.36
2018-11-13T13:45:57.255Z,55.44
2018-11-13T13:48:26.254Z,55.81
2018-11-13T13:50:55.095Z,56.59
2018-11-13T13:53:25.032Z,56.02
2018-11-13T13:55:54.044Z,56.19
2018-11-13T13:58:23.688Z,55.67
2018-11-13T14:00:53.067Z,56.40
2018-11-13T14:03:22.002Z,56.07
2018-11-13T14:05:50.839Z,56.30
2018-11-13T14:08:20.038Z,55.91
2018-11-13T14:10:48.906Z,56.05
2018-11-13T14:13:17.950Z,56.03
2018-11-13T14:15:47.155Z,56.64
2018-11-13T14:18:16.004Z,56.20
2018-11-13T14:20:44.939Z,56.28
2018-11-13T14:23:13.904Z,56.77
2018-11-13T14:25:42.685Z,57.37
2018-11-13T14:28:11.543Z,56.73
2018-11-13T14:30:40.314Z,56.69
2018-11-13T14:33:10.368Z,56.92
2018-11-13T14:35:39.360Z,57.47
2018-11-13T14:38:08.360Z,58.17
2018-11-13T14:40:40.637Z,58.22
2018-11-13T14:43:09.871Z,58.00
2018-11-13T14:45:38.652Z,58.61
2018-11-13T14:48:08.129Z,57.95
2018-11-13T14:50:37.553Z,58.32
2018-11-13T14:53:07.319Z,58.73
2018-11-13T14:55:37.626Z,58.46
2018-11-13T14:58:07.638Z,58.32
2018-11-13T15:00:37.279Z,59.18
2018-11-13T15:03:07.871Z,58.66
2018-11-13T15:05:36.980Z,58.90
2018-11-13T15:08:06.928Z,59.31
2018-11-13T15:10:49.025Z,59.41
2018-11-13T15:13:18.246Z,58.81
2018-11-13T15:15:47.215Z,59.04
2018-11-13T15:18:16.092Z,59.16
2018-11-13T15:20:45.539Z,59.46
2018-11-13T15:23:14.783Z,59.49
2018-11-13T15:25:43.651Z,60.50
2018-11-13T15:28:12.853Z,60.36
2018-11-13T15:30:44.161Z,60.57
2018-11-13T15:33:14.804Z,61.11
2018-11-13T15:35:43.616Z,61.65
2018-11-13T15:38:12.542Z,61.73
2018-11-13T15:40:41.414Z,61.73
2018-11-13T15:43:10.371Z,62.48
2018-11-13T15:45:39.178Z,62.26
2018-11-13T15:48:09.892Z,62.49
2018-11-13T15:50:39.190Z,62.17
2018-11-13T15:53:08.358Z,62.80
2018-11-13T15:55:37.168Z,62.96
2018-11-13T15:58:06.646Z,62.79
2018-11-13T16:00:37.044Z,62.94
2018-11-13T16:03:09.687Z,62.88
2018-11-13T16:05:46.098Z,63.10
2018-11-13T16:08:15.005Z,63.14
2018-11-13T16:10:44.009Z,63.59
2018-11-13T16:13:12.864Z,63.78
2018-11-13T16:15:42.151Z,63.30
2018-11-13T16:18:13.421Z,62.94
2018-11-13T16:20:42.482Z,63.78
2018-11-13T16:23:11.407Z,63.38
2018-11-13T16:25:40.141Z,63.88
2018-11-13T16:28:08.962Z,63.55
2018-11-13T16:30:38.796Z,63.33
2018-11-13T16:33:08.313Z,63.70
2018-11-13T16:35:37.256Z,63.45
2018-11-13T16:38:07.990Z,64.31
2018-11-13T16:40:36.881Z,64.19
2018-11-13T16:43:06.134Z,64.71
2018-11-13T16:45:35.424Z,64.81
2018-11-13T16:48:05.101Z,63.88
2018-11-13T16:50:35.358Z,64.77
2018-11-13T16:53:04.226Z,64.82
2018-11-13T16:55:38.905Z,64.87
2018-11-13T16:58:09.461Z,64.90
2018-11-13T17:00:38.758Z,65.00
2018-11-13T17:03:07.836Z,65.04
2018-11-13T17:05:36.903Z,64.56
2018-11-13T17:08:06.257Z,65.29
2018-11-13T17:10:35.346Z,64.61
2018-11-13T17:13:04.537Z,65.29
2018-11-13T17:15:33.380Z,65.57
2018-11-13T17:18:03.164Z,65.31
2018-11-13T17:20:32.140Z,65.64
2018-11-13T17:23:01.135Z,65.87
2018-11-13T17:25:32.186Z,65.87
2018-11-13T17:28:00.955Z,66.03
2018-11-13T17:30:31.249Z,66.90
2018-11-13T17:33:01.240Z,66.87
2018-11-13T17:35:30.753Z,67.02
2018-11-13T17:38:00.628Z,67.47
2018-11-13T17:40:32.071Z,67.77
2018-11-13T17:43:03.142Z,67.63
2018-11-13T17:45:35.119Z,67.71
2018-11-13T17:48:04.061Z,68.69
2018-11-13T17:50:34.241Z,68.33
2018-11-13T17:53:03.201Z,67.98
2018-11-13T17:55:32.043Z,69.15
2018-11-13T17:58:05.223Z,69.30
2018-11-13T18:00:35.821Z,69.23
2018-11-13T18:03:05.614Z,69.80
2018-11-13T18:05:35.016Z,69.80
2018-11-13T18:08:04.579Z,69.96
2018-11-13T18:10:34.215Z,70.53
2018-11-13T18:13:03.025Z,70.89
2018-11-13T18:15:31.990Z,70.80
2018-11-13T18:18:01.203Z,71.18
2018-11-13T18:20:31.253Z,71.58
2018-11-13T18:23:00.071Z,71.83
2018-11-13T18:25:29.521Z,72.35
2018-11-13T18:28:00.354Z,72.38
2018-11-13T18:30:31.445Z,72.55
2018-11-13T18:33:01.135Z,72.97
2018-11-13T18:35:31.183Z,72.40
2018-11-13T18:38:01.150Z,73.37
2018-11-13T18:40:30.142Z,73.30
2018-11-13T18:43:00.205Z,73.51
2018-11-13T18:45:30.950Z,73.46
2018-11-13T18:47:59.948Z,74.23
2018-11-13T18:50:33.003Z,74.83
2018-11-13T18:53:01.919Z,74.43
2018-11-13T18:55:31.074Z,74.44
2018-11-13T18:58:00.637Z,74.07
2018-11-13T19:00:30.647Z,74.91
2018-11-13T19:03:00.249Z,74.48
2018-11-13T19:05:29.139Z,74.40
2018-11-13T19:07:58.444Z,74.39
2018-11-13T19:10:34.435Z,75.03
2018-11-13T19:13:04.309Z,75.02
2018-11-13T19:15:34.606Z,74.91
2018-11-13T19:18:03.597Z,74.85
2018-11-13T19:20:32.623Z,74.39
2018-11-13T19:23:01.452Z,74.59
2018-11-13T19:25:31.851Z,74.21
2018-11-13T19:28:02.140Z,74.76
2018-11-13T19:30:31.103Z,74.99
2018-11-13T19:32:59.943Z,74.67
2018-11-13T19:35:28.876Z,74.69
2018-11-13T19:37:57.854Z,74.67
2018-11-13T19:40:27.839Z,74.74
2018-11-13T19:42:57.756Z,74.33
2018-11-13T19:45:26.674Z,74.84
2018-11-13T19:47:55.543Z,74.34
2018-11-13T19:50:27.821Z,74.58
2018-11-13T19:52:57.015Z,74.63
2018-11-13T19:55:26.537Z,73.83
2018-11-13T19:57:55.373Z,74.49
2018-11-13T20:00:29.300Z,73.67
2018-11-13T20:02:59.526Z,74.01
2018-11-13T20:05:29.251Z,73.23
2018-11-13T20:07:58.040Z,73.54
2018-11-13T20:10:28.148Z,72.88
2018-11-13T20:12:58.582Z,73.36
2018-11-13T20:15:28.067Z,73.49
2018-11-13T20:17:57.618Z,72.94
2018-11-13T20:20:27.707Z,74.46
2018-11-13T20:22:57.024Z,72.81
2018-11-13T20:25:27.934Z,73.44
2018-11-13T20:27:56.723Z,72.52
2018-11-13T20:30:31.779Z,72.57
2018-11-13T20:33:00.918Z,71.95
2018-11-13T20:35:30.527Z,72.16
2018-11-13T20:37:59.676Z,72.63
2018-11-13T20:40:29.791Z,72.30
2018-11-13T20:43:00.115Z,72.73
2018-11-13T20:45:28.947Z,71.72
2018-11-13T20:47:57.703Z,72.10
2018-11-13T20:50:27.801Z,72.32
2018-11-13T20:52:56.624Z,71.86
2018-11-13T20:55:25.450Z,72.84
2018-11-13T20:57:54.400Z,72.17
2018-11-13T21:00:28.189Z,72.85
2018-11-13T21:02:57.062Z,72.64
2018-11-13T21:05:25.931Z,72.52
2018-11-13T21:07:54.867Z,72.37
2018-11-13T21:10:27.971Z,71.75
2018-11-13T21:12:56.956Z,72.17
2018-11-13T21:15:26.574Z,71.44
2018-11-13T21:17:55.369Z,70.74
2018-11-13T21:20:24.554Z,70.37
2018-11-13T21:22:53.298Z,70.65
2018-11-13T21:25:23.279Z,70.55
2018-11-13T21:27:55.970Z,70.99
2018-11-13T21:30:24.836Z,70.96
2018-11-13T21:32:54.160Z,72.03
2018-11-13T21:35:23.331Z,70.99
2018-11-13T21:37:53.539Z,70.80
2018-11-13T21:40:24.452Z,71.49
2018-11-13T21:42:53.792Z,71.72
2018-11-13T21:45:23.720Z,71.87
2018-11-13T21:47:52.555Z,72.00
2018-11-13T21:50:22.931Z,72.69
2018-11-13T21:52:51.780Z,72.45
2018-11-13T21:55:21.646Z,72.19
2018-11-13T21:57:50.687Z,72.48
2018-11-13T22:00:23.231Z,72.30
2018-11-13T22:02:54.754Z,72.34
2018-11-13T22:05:24.263Z,72.37
2018-11-13T22:07:53.138Z,71.93
2018-11-13T22:10:21.988Z,72.31
2018-11-13T22:12:50.912Z,72.17
2018-11-13T22:15:21.289Z,71.91
2018-11-13T22:17:50.291Z,71.27
2018-11-13T22:20:20.254Z,71.72
2018-11-13T22:22:50.121Z,71.95
2018-11-13T22:25:21.032Z,72.05
2018-11-13T22:27:51.445Z,71.75
2018-11-13T22:30:22.734Z,72.07
2018-11-13T22:32:51.530Z,72.10
2018-11-13T22:35:21.235Z,72.24
2018-11-13T22:37:50.363Z,72.73
2018-11-13T22:40:20.578Z,73.95
2018-11-13T22:42:49.739Z,74.62
2018-11-13T22:45:25.900Z,74.43
2018-11-13T22:47:55.007Z,75.03
2018-11-13T22:50:25.183Z,75.30
2018-11-13T22:52:54.298Z,75.06
2018-11-13T22:55:23.212Z,74.78
2018-11-13T22:57:53.609Z,74.87
2018-11-13T23:00:24.724Z,74.51
2018-11-13T23:02:54.590Z,74.15
2018-11-13T23:05:23.414Z,73.92
2018-11-13T23:07:52.447Z,73.94
2018-11-13T23:10:21.238Z,74.16
2018-11-13T23:12:50.027Z,74.04
2018-11-13T23:15:21.335Z,73.62
2018-11-13T23:17:50.182Z,74.13
2018-11-13T23:20:20.070Z,73.91
2018-11-13T23:22:49.298Z,73.88
2018-11-13T23:25:19.084Z,74.48
2018-11-13T23:27:48.880Z,75.21
2018-11-13T23:30:32.742Z,75.65
2018-11-13T23:33:01.798Z,75.96
2018-11-13T23:35:30.749Z,76.00
2018-11-13T23:38:00.167Z,76.67
2018-11-13T23:40:29.839Z,76.14
2018-11-13T23:42:58.626Z,75.79
2018-11-13T23:45:27.722Z,75.31
2018-11-13T23:47:56.506Z,74.62
2018-11-13T23:50:25.527Z,74.78
2018-11-13T23:52:54.329Z,74.64
2018-11-13T23:55:23.129Z,74.16
2018-11-13T23:57:51.919Z,73.90
